Huvudsida
METAR-TAF:

METAR-TAF

Flygplatser :

Santa Maria di Leuca

Castrignano del Capo, Italien

latitud: 39-49N, longitud: 018-21E, höjd: 104 m

Aktuellt väderrapport

Denna rapport gjordes för 50 minuter sedan, klockan 13:55 UTC
Vind 8 kt från väst/nordväst
Temperatur 30°C
Fuktighet 66%
Tryck 1016 hPa
Sikt 10 km eller mer
Inga moln under 1 500 m eller inga cumulonimbus

METAR: LIBY 261355Z 29008KT CAVOK 30/23 Q1016 RMK BKN BKN200 QUK 2 QUL 1 SW VIS MAR 15 KM VIS MIN 9999

Tid: 16:45 (14:45 UTC)


TAF: saknas

Aktuella väderrapporter och prognoser från 4000 flygplatser (METAR- och TAF-rapporter).

De tillgängliga stationerna syns som gula och röda prickar på kartan.

För musen över prickarna för att se namnen på stationerna.

Klicka sedan för att få väderrapporter och prognoser.

För att ändra kartan: Klicka på de gröna knapparna med ett svart kors på för att zooma in; den gröna knappen med ett streck på för att zooma ut; eller på de gröna pilarna för angränsande kartor.


METAR-TAF: